createdAt,value
2022-09-03T00:01:41.697Z,99749.69
2022-09-03T00:04:36.237Z,99734.56
2022-09-03T00:07:29.855Z,99732.09
2022-09-03T00:10:22.641Z,99730.53
2022-09-03T00:13:10.070Z,99731.41
2022-09-03T00:15:56.649Z,99702.84
2022-09-03T00:18:49.379Z,99720.97
2022-09-03T00:21:41.287Z,99718.13
2022-09-03T00:24:29.516Z,99725.38
2022-09-03T00:27:16.855Z,99730.03
2022-09-03T00:30:04.513Z,99723.81
2022-09-03T00:32:55.886Z,99710.53
2022-09-03T00:35:47.653Z,99707.31
2022-09-03T00:38:33.770Z,99718.97
2022-09-03T00:41:31.500Z,99711.88
2022-09-03T00:44:45.467Z,99743.50
2022-09-03T00:47:37.187Z,99749.72
2022-09-03T00:50:33.475Z,99750.91
2022-09-03T00:53:26.017Z,99754.59
2022-09-03T00:56:17.340Z,99757.66
2022-09-03T00:59:09.073Z,99764.56
2022-09-03T01:02:03.585Z,99775.47
2022-09-03T01:04:57.502Z,99767.75
2022-09-03T01:07:47.927Z,99773.41
2022-09-03T01:10:43.750Z,99792.41
2022-09-03T01:13:38.566Z,99770.72
2022-09-03T01:16:30.173Z,99760.56
2022-09-03T01:19:35.758Z,99784.13
2022-09-03T01:22:41.761Z,99770.75
2022-09-03T01:25:37.639Z,99798.03
2022-09-03T01:28:35.066Z,99767.44
2022-09-03T01:31:30.332Z,99789.22
2022-09-03T01:34:22.328Z,99775.72
2022-09-03T01:37:16.670Z,99781.47
2022-09-03T01:40:07.579Z,99786.19
2022-09-03T01:43:05.430Z,99778.78
2022-09-03T01:46:00.351Z,99775.38
2022-09-03T01:48:51.550Z,99784.69
2022-09-03T01:51:35.591Z,99774.97
2022-09-03T01:54:34.971Z,99768.78
2022-09-03T01:57:47.724Z,99768.28
2022-09-03T02:00:35.683Z,99766.66
2022-09-03T02:03:21.338Z,99765.34
2022-09-03T02:06:07.239Z,99761.16
2022-09-03T02:08:51.073Z,99759.75
2022-09-03T02:11:34.934Z,99753.16
2022-09-03T02:14:19.154Z,99755.34
2022-09-03T02:17:06.712Z,99728.53
2022-09-03T02:19:52.161Z,99771.31
2022-09-03T02:22:36.903Z,99704.03
2022-09-03T02:25:21.068Z,99768.97
2022-09-03T02:28:11.221Z,99767.75
2022-09-03T02:31:01.987Z,99781.81
2022-09-03T02:33:48.799Z,99762.56
2022-09-03T02:36:37.498Z,99789.03
2022-09-03T02:39:21.445Z,99806.78
2022-09-03T02:42:05.664Z,99783.44
2022-09-03T02:44:53.421Z,99810.59
2022-09-03T02:47:39.840Z,99693.88
2022-09-03T02:50:23.729Z,99797.22
2022-09-03T02:53:09.028Z,99807.34
2022-09-03T02:55:53.244Z,99816.25
2022-09-03T02:58:37.128Z,99789.06
2022-09-03T03:01:24.115Z,99795.81
2022-09-03T03:04:08.226Z,99798.38
2022-09-03T03:06:52.148Z,99801.69
2022-09-03T03:09:37.428Z,99758.91
2022-09-03T03:12:21.564Z,99798.38
2022-09-03T03:15:06.067Z,99793.56
2022-09-03T03:17:49.866Z,99789.84
2022-09-03T03:20:33.743Z,99774.69
2022-09-03T03:23:17.950Z,99756.69
2022-09-03T03:26:04.391Z,99764.00
2022-09-03T03:28:49.642Z,99750.97
2022-09-03T03:31:34.269Z,99767.59
2022-09-03T03:34:18.143Z,99773.00
2022-09-03T03:37:02.077Z,99778.88
2022-09-03T03:39:46.025Z,99737.22
2022-09-03T03:42:34.420Z,99789.00
2022-09-03T03:45:19.115Z,99785.13
2022-09-03T03:48:03.146Z,99690.56
2022-09-03T03:50:47.533Z,99796.41
2022-09-03T03:53:31.544Z,99780.88
2022-09-03T03:56:17.243Z,99794.69
2022-09-03T03:59:02.648Z,99805.69
2022-09-03T04:01:46.603Z,99800.91
2022-09-03T04:04:30.498Z,99811.88
2022-09-03T04:07:14.595Z,99809.38
2022-09-03T04:09:58.358Z,99762.59
2022-09-03T04:12:42.462Z,99819.22
2022-09-03T04:15:27.826Z,99802.34
2022-09-03T04:18:11.830Z,99838.09
2022-09-03T04:21:00.191Z,99842.56
2022-09-03T04:23:47.011Z,99824.59
2022-09-03T04:26:32.776Z,99849.78
2022-09-03T04:29:16.673Z,99851.59
2022-09-03T04:32:19.296Z,99841.16
2022-09-03T04:35:03.188Z,99863.56
2022-09-03T04:37:47.280Z,99854.38
2022-09-03T04:40:31.232Z,99865.53
2022-09-03T04:43:15.124Z,99871.56
2022-09-03T04:46:00.606Z,99864.00
2022-09-03T04:48:48.962Z,99750.50
2022-09-03T04:51:32.973Z,99868.09
2022-09-03T04:54:17.006Z,99865.97
2022-09-03T04:57:00.907Z,99861.03
2022-09-03T04:59:44.911Z,99870.38
2022-09-03T05:02:28.778Z,99874.81
2022-09-03T05:05:14.144Z,99880.75
2022-09-03T05:07:59.550Z,99877.53
2022-09-03T05:10:43.408Z,99888.50
2022-09-03T05:13:28.658Z,99891.47
2022-09-03T05:16:13.593Z,99892.97
2022-09-03T05:19:01.315Z,99899.78
2022-09-03T05:21:46.988Z,99892.97
2022-09-03T05:24:30.870Z,99880.06
2022-09-03T05:27:17.012Z,99893.06
2022-09-03T05:30:01.560Z,99884.25
2022-09-03T05:32:47.369Z,99882.44
2022-09-03T05:35:31.188Z,99893.31
2022-09-03T05:38:18.150Z,99900.09
2022-09-03T05:41:02.363Z,99892.72
2022-09-03T05:43:46.277Z,99902.03
2022-09-03T05:46:33.525Z,99916.00
2022-09-03T05:49:17.526Z,99906.41
2022-09-03T05:52:01.430Z,99917.28
2022-09-03T05:54:48.089Z,99905.56
2022-09-03T05:57:32.022Z,99917.63
2022-09-03T06:00:16.349Z,99909.28
2022-09-03T06:03:00.258Z,99908.50
2022-09-03T06:05:51.549Z,99909.66
2022-09-03T06:08:35.541Z,99898.31
2022-09-03T06:11:21.395Z,99921.28
2022-09-03T06:14:06.796Z,99868.03
2022-09-03T06:16:52.926Z,99919.59
2022-09-03T06:19:37.129Z,99918.84
2022-09-03T06:22:20.985Z,99919.19
2022-09-03T06:25:05.894Z,99931.53
2022-09-03T06:27:51.215Z,99937.75
2022-09-03T06:30:35.577Z,99899.59
2022-09-03T06:33:19.547Z,99943.25
2022-09-03T06:36:08.624Z,99946.16
2022-09-03T06:38:54.512Z,99951.84
2022-09-03T06:41:38.539Z,99949.66
2022-09-03T06:44:23.831Z,99946.44
2022-09-03T06:47:07.715Z,99952.16
2022-09-03T06:49:51.946Z,99960.50
2022-09-03T06:52:35.854Z,99966.97
2022-09-03T06:55:19.756Z,99977.53
2022-09-03T06:58:03.661Z,99960.28
2022-09-03T07:00:49.809Z,99969.97
2022-09-03T07:03:34.475Z,99978.41
2022-09-03T07:06:20.565Z,99947.56
2022-09-03T07:09:04.696Z,99971.63
2022-09-03T07:11:49.424Z,99992.50
2022-09-03T07:14:33.408Z,99962.34
2022-09-03T07:17:18.599Z,99985.97
2022-09-03T07:20:02.531Z,99988.97
2022-09-03T07:22:47.429Z,100014.50
2022-09-03T07:25:31.720Z,100016.91
2022-09-03T07:28:17.028Z,99949.81
2022-09-03T07:31:04.837Z,100023.66
2022-09-03T07:33:50.195Z,100021.53
2022-09-03T07:36:41.696Z,100026.63
2022-09-03T07:39:25.830Z,100041.84
2022-09-03T07:42:11.135Z,100048.22
2022-09-03T07:44:55.696Z,100042.91
2022-09-03T07:47:47.267Z,100044.97
2022-09-03T07:50:37.821Z,100036.41
2022-09-03T07:53:22.874Z,100025.69
2022-09-03T07:56:08.934Z,100053.81
2022-09-03T07:58:52.870Z,100035.47
2022-09-03T08:01:38.349Z,100049.88
2022-09-03T08:04:23.242Z,100044.66
2022-09-03T08:07:08.575Z,100038.56
2022-09-03T08:09:52.532Z,100039.03
2022-09-03T08:12:36.358Z,100025.78
2022-09-03T08:15:20.255Z,100027.88
2022-09-03T08:18:05.913Z,100010.16
2022-09-03T08:20:50.071Z,100009.69
2022-09-03T08:23:37.989Z,100017.34
2022-09-03T08:26:23.304Z,100027.03
2022-09-03T08:29:07.769Z,100021.13
2022-09-03T08:31:51.844Z,100022.13
2022-09-03T08:34:35.888Z,100019.88
2022-09-03T08:37:20.152Z,100022.84
2022-09-03T08:40:06.363Z,100026.16
2022-09-03T08:43:06.587Z,100025.19
2022-09-03T08:45:50.881Z,100029.94
2022-09-03T08:48:35.582Z,100015.66
2022-09-03T08:51:24.424Z,100024.38
2022-09-03T08:54:11.982Z,100023.25
2022-09-03T08:57:01.704Z,100018.97
2022-09-03T08:59:46.268Z,100029.47
2022-09-03T09:02:43.523Z,100055.38
2022-09-03T09:05:39.967Z,100048.03
2022-09-03T09:08:34.606Z,100051.72
2022-09-03T09:11:29.124Z,100055.66
2022-09-03T09:14:20.945Z,100038.03
2022-09-03T09:17:19.383Z,100032.34
2022-09-03T09:20:11.314Z,100049.72
2022-09-03T09:22:59.155Z,100060.03
2022-09-03T09:25:50.269Z,100058.88
2022-09-03T09:28:37.845Z,100048.66
2022-09-03T09:31:23.271Z,100057.13
2022-09-03T09:34:08.878Z,100032.19
2022-09-03T09:36:55.549Z,100033.34
2022-09-03T09:39:39.657Z,100074.81
2022-09-03T09:42:24.357Z,100078.94
2022-09-03T09:45:12.287Z,100034.81
2022-09-03T09:47:58.175Z,100044.38
2022-09-03T09:50:42.167Z,100067.81
2022-09-03T09:53:30.275Z,100017.31
2022-09-03T09:56:24.033Z,100065.00
2022-09-03T09:59:10.007Z,100068.53
2022-09-03T10:02:09.028Z,100097.69
2022-09-03T10:04:55.093Z,100072.72
2022-09-03T10:07:39.039Z,100064.25
2022-09-03T10:10:23.322Z,100039.19
2022-09-03T10:13:12.686Z,100058.63
2022-09-03T10:16:04.077Z,100004.91
2022-09-03T10:18:55.183Z,100046.34
2022-09-03T10:21:48.555Z,99991.66
2022-09-03T10:24:40.353Z,100077.66
2022-09-03T10:27:24.291Z,100085.56
2022-09-03T10:30:09.096Z,100083.31
2022-09-03T10:33:02.718Z,100103.59
2022-09-03T10:35:53.908Z,100103.59
2022-09-03T10:38:41.372Z,100096.84
2022-09-03T10:41:41.232Z,100090.63
2022-09-03T10:45:01.816Z,100100.41
2022-09-03T10:48:29.082Z,100084.00
2022-09-03T10:51:20.536Z,100100.81
2022-09-03T10:54:24.271Z,100106.72
2022-09-03T10:57:19.287Z,100094.72
2022-09-03T11:00:09.499Z,100105.63
2022-09-03T11:03:13.826Z,100080.16
2022-09-03T11:06:10.009Z,100128.66
2022-09-03T11:09:05.834Z,100135.09
2022-09-03T11:11:58.708Z,100126.44
2022-09-03T11:14:46.852Z,100136.81
2022-09-03T11:17:38.601Z,100109.63
2022-09-03T11:20:24.485Z,100029.47
2022-09-03T11:23:13.516Z,100143.09
2022-09-03T11:26:03.603Z,100091.97
2022-09-03T11:28:58.563Z,100130.13
2022-09-03T11:31:55.104Z,100134.75
2022-09-03T11:34:47.646Z,100132.72
2022-09-03T11:37:32.191Z,100137.66
2022-09-03T11:40:18.379Z,100125.81
2022-09-03T11:43:14.058Z,100120.06
2022-09-03T11:46:11.969Z,100111.59
2022-09-03T11:48:57.869Z,100112.72
2022-09-03T11:51:44.189Z,100129.72
2022-09-03T11:54:29.405Z,100111.31
2022-09-03T11:57:15.928Z,100100.25
2022-09-03T12:00:11.927Z,100125.31
2022-09-03T12:03:02.816Z,100142.09
2022-09-03T12:05:59.393Z,100120.78
2022-09-03T12:08:59.682Z,100139.81
2022-09-03T12:11:55.812Z,100120.88
2022-09-03T12:14:49.767Z,100124.59
2022-09-03T12:17:39.619Z,100113.34
2022-09-03T12:20:29.437Z,100140.50
2022-09-03T12:23:15.122Z,100135.56
2022-09-03T12:26:01.837Z,100144.75
2022-09-03T12:28:49.088Z,100168.53
2022-09-03T12:31:38.112Z,100152.78
2022-09-03T12:34:25.927Z,100152.59
2022-09-03T12:40:30.125Z,100164.53
2022-09-03T12:46:21.166Z,100157.97
2022-09-03T12:49:32.138Z,100157.97
2022-09-03T12:52:22.410Z,100165.72
2022-09-03T12:55:15.368Z,100174.69
2022-09-03T12:58:05.065Z,100177.75
2022-09-03T13:00:54.607Z,100166.41
2022-09-03T13:03:49.533Z,100146.66
2022-09-03T13:06:42.458Z,100166.84
2022-09-03T13:09:30.633Z,100170.78
2022-09-03T13:12:23.323Z,100188.56
2022-09-03T13:15:10.844Z,100160.72
2022-09-03T13:18:13.287Z,100181.88
2022-09-03T13:21:12.406Z,100182.31
2022-09-03T13:24:15.409Z,100148.47
2022-09-03T13:27:10.695Z,100178.16
2022-09-03T13:30:07.027Z,100185.22
2022-09-03T13:33:01.097Z,100190.91
2022-09-03T13:35:51.080Z,100199.31
2022-09-03T13:38:40.446Z,100180.22
2022-09-03T13:41:36.753Z,100182.94
2022-09-03T13:44:33.163Z,100156.06
2022-09-03T13:47:29.097Z,100167.41
2022-09-03T13:50:24.363Z,100183.97
2022-09-03T13:53:14.360Z,100182.09
2022-09-03T13:56:06.630Z,100198.69
2022-09-03T13:58:57.377Z,100193.91
2022-09-03T14:01:57.244Z,100191.69
2022-09-03T14:04:53.227Z,100206.81
2022-09-03T14:07:53.182Z,100172.16
2022-09-03T14:10:52.499Z,100208.31
2022-09-03T14:13:50.090Z,100174.16
2022-09-03T14:16:42.804Z,100213.97
2022-09-03T14:19:38.475Z,100214.41
2022-09-03T14:22:26.595Z,100222.38
2022-09-03T14:25:16.002Z,100230.34
2022-09-03T14:28:15.157Z,100219.13
2022-09-03T14:31:11.212Z,100226.81
2022-09-03T14:34:03.186Z,100230.28
2022-09-03T14:36:58.694Z,100237.53
2022-09-03T14:39:54.295Z,100201.56
2022-09-03T14:43:05.035Z,100241.00
2022-09-03T14:46:05.023Z,100237.75
2022-09-03T14:49:16.574Z,100220.00
2022-09-03T14:52:24.078Z,100247.53
2022-09-03T14:55:40.120Z,100246.78
2022-09-03T14:58:40.831Z,100250.50
2022-09-03T15:01:37.596Z,100253.00
2022-09-03T15:04:51.440Z,100248.78
2022-09-03T15:07:43.925Z,100244.13
2022-09-03T15:10:36.503Z,100256.59
2022-09-03T15:13:23.719Z,100261.25
2022-09-03T15:16:26.977Z,100275.63
2022-09-03T15:19:28.239Z,100217.41
2022-09-03T15:22:22.971Z,100278.78
2022-09-03T15:25:21.588Z,100266.75
2022-09-03T15:28:13.841Z,100260.72
2022-09-03T15:31:02.966Z,100268.69
2022-09-03T15:33:58.679Z,100268.00
2022-09-03T15:36:46.473Z,100275.38
2022-09-03T15:39:35.309Z,100277.84
2022-09-03T15:42:27.823Z,100282.03
2022-09-03T15:45:33.924Z,100287.13
2022-09-03T15:48:28.245Z,100290.25
2022-09-03T15:51:19.186Z,100294.03
2022-09-03T15:54:13.004Z,100278.75
2022-09-03T15:57:04.981Z,100288.59
2022-09-03T15:59:55.910Z,100279.91
2022-09-03T16:02:45.637Z,100277.50
2022-09-03T16:05:40.456Z,100275.50
2022-09-03T16:08:30.999Z,100279.66
2022-09-03T16:11:19.248Z,100293.25
2022-09-03T16:14:09.706Z,100290.78
2022-09-03T16:17:04.037Z,100290.34
2022-09-03T16:19:53.835Z,100269.22
2022-09-03T16:22:46.196Z,100282.66
2022-09-03T16:25:35.698Z,100297.75
2022-09-03T16:28:26.114Z,100285.47
2022-09-03T16:31:21.429Z,100285.22
2022-09-03T16:34:18.730Z,100284.50
2022-09-03T16:37:16.150Z,100295.75
2022-09-03T16:40:11.077Z,100294.19
2022-09-03T16:43:13.358Z,100293.00
2022-09-03T16:46:21.884Z,100303.44
2022-09-03T16:49:22.064Z,100255.16
2022-09-03T16:52:15.015Z,100283.06
2022-09-03T16:55:09.591Z,100294.19
2022-09-03T16:58:11.662Z,100304.63
2022-09-03T17:01:10.046Z,100278.72
2022-09-03T17:04:22.404Z,100322.00
2022-09-03T17:07:20.873Z,100334.25
2022-09-03T17:10:11.654Z,100340.22
2022-09-03T17:13:12.964Z,100313.59
2022-09-03T17:16:04.713Z,100310.19
2022-09-03T17:18:52.823Z,100353.41
2022-09-03T17:21:49.197Z,100358.97
2022-09-03T17:24:48.009Z,100366.97
2022-09-03T17:27:50.137Z,100388.66
2022-09-03T17:30:42.872Z,100383.97
2022-09-03T17:33:56.864Z,100381.63
2022-09-03T17:36:59.074Z,100394.25
2022-09-03T17:40:19.864Z,100410.19
2022-09-03T17:43:16.896Z,100415.34
2022-09-03T17:46:12.319Z,100415.75
2022-09-03T17:48:59.410Z,100422.69
2022-09-03T17:51:50.971Z,100429.50
2022-09-03T17:54:44.196Z,100419.28
2022-09-03T17:57:32.959Z,100409.53
2022-09-03T18:00:25.554Z,100428.63
2022-09-03T18:03:18.276Z,100417.81
2022-09-03T18:06:12.309Z,100431.78
2022-09-03T18:09:03.934Z,100431.78
2022-09-03T18:11:51.085Z,100429.72
2022-09-03T18:14:40.561Z,100437.56
2022-09-03T18:17:32.648Z,100443.84
2022-09-03T18:20:34.355Z,100434.03
2022-09-03T18:23:41.394Z,100446.03
2022-09-03T18:26:50.957Z,100444.78
2022-09-03T18:29:59.300Z,100422.50
2022-09-03T18:33:01.668Z,100450.56
2022-09-03T18:36:04.199Z,100461.63
2022-09-03T18:39:05.950Z,100456.31
2022-09-03T18:42:19.735Z,100459.72
2022-09-03T18:45:47.794Z,100459.41
2022-09-03T18:48:57.134Z,100452.03
2022-09-03T18:52:11.682Z,100464.34
2022-09-03T18:55:25.279Z,100470.31
2022-09-03T18:58:38.419Z,100474.47
2022-09-03T19:01:50.069Z,100479.50
2022-09-03T19:05:08.255Z,100470.16
2022-09-03T19:08:18.450Z,100463.66
2022-09-03T19:11:26.180Z,100465.75
2022-09-03T19:14:39.942Z,100435.53
2022-09-03T19:17:51.495Z,100438.81
2022-09-03T19:20:55.880Z,100461.53
2022-09-03T19:23:57.918Z,100476.28
2022-09-03T19:27:23.537Z,100450.16
2022-09-03T19:30:33.646Z,100472.00
2022-09-03T19:33:47.930Z,100483.19
2022-09-03T19:37:01.381Z,100468.00
2022-09-03T19:40:21.956Z,100494.16
2022-09-03T19:43:37.662Z,100500.41
2022-09-03T19:46:48.891Z,100503.16
2022-09-03T19:50:00.470Z,100512.09
2022-09-03T19:53:09.524Z,100477.63
2022-09-03T19:56:13.645Z,100511.34
2022-09-03T19:59:19.151Z,100520.25
2022-09-03T20:02:22.083Z,100523.00
2022-09-03T20:05:29.360Z,100518.28
2022-09-03T20:08:34.743Z,100516.97
2022-09-03T20:11:20.973Z,100515.50
2022-09-03T20:14:17.149Z,100518.97
2022-09-03T20:17:15.868Z,100506.59
2022-09-03T20:20:13.257Z,100523.22
2022-09-03T20:23:02.659Z,100491.91
2022-09-03T20:25:59.514Z,100496.13
2022-09-03T20:29:02.320Z,100524.97
2022-09-03T20:31:54.892Z,100523.69
2022-09-03T20:34:52.703Z,100523.25
2022-09-03T20:37:42.747Z,100535.84
2022-09-03T20:40:34.930Z,100500.09
2022-09-03T20:43:57.323Z,100538.72
2022-09-03T20:46:56.159Z,100544.13
2022-09-03T20:49:53.966Z,100531.63
2022-09-03T20:52:45.998Z,100497.53
2022-09-03T20:55:34.303Z,100535.53
2022-09-03T20:58:25.447Z,100544.56
2022-09-03T21:01:10.950Z,100536.03
2022-09-03T21:04:07.383Z,100535.00
2022-09-03T21:07:01.241Z,100505.91
2022-09-03T21:09:53.248Z,100516.03
2022-09-03T21:12:46.515Z,100542.19
2022-09-03T21:15:39.393Z,100547.63
2022-09-03T21:18:34.874Z,100530.03
2022-09-03T21:21:25.192Z,100534.91
2022-09-03T21:24:16.408Z,100513.81
2022-09-03T21:27:05.820Z,100502.19
2022-09-03T21:30:01.383Z,100544.81
2022-09-03T21:32:53.587Z,100549.59
2022-09-03T21:35:43.621Z,100539.47
2022-09-03T21:38:29.567Z,100545.50
2022-09-03T21:41:22.819Z,100554.28
2022-09-03T21:44:13.257Z,100552.38
2022-09-03T21:47:00.647Z,100526.97
2022-09-03T21:50:05.177Z,100539.69
2022-09-03T21:52:55.494Z,100548.72
2022-09-03T21:55:50.122Z,100548.13
2022-09-03T21:58:48.851Z,100526.56
2022-09-03T22:01:41.662Z,100515.25
2022-09-03T22:04:27.100Z,100501.19
2022-09-03T22:07:18.396Z,100543.53
2022-09-03T22:10:07.686Z,100546.03
2022-09-03T22:13:00.900Z,100550.84
2022-09-03T22:15:51.991Z,100549.75
2022-09-03T22:18:38.028Z,100559.97
2022-09-03T22:21:31.259Z,100553.56
2022-09-03T22:24:23.223Z,100559.50
2022-09-03T22:27:15.680Z,100556.28
2022-09-03T22:30:06.886Z,100532.53
2022-09-03T22:33:04.480Z,100560.72
2022-09-03T22:36:04.386Z,100569.56
2022-09-03T22:39:12.395Z,100576.91
2022-09-03T22:42:11.524Z,100572.75
2022-09-03T22:45:10.850Z,100533.94
2022-09-03T22:48:08.414Z,100569.69
2022-09-03T22:50:57.860Z,100561.69
2022-09-03T22:54:02.228Z,100568.16
2022-09-03T22:56:46.577Z,100558.59
2022-09-03T22:59:36.467Z,100561.78
2022-09-03T23:02:24.418Z,100562.19
2022-09-03T23:05:16.143Z,100547.69
2022-09-03T23:08:06.292Z,100548.13
2022-09-03T23:11:00.541Z,100568.19
2022-09-03T23:13:50.048Z,100561.13
2022-09-03T23:16:39.725Z,100564.22
2022-09-03T23:19:38.950Z,100551.53
2022-09-03T23:22:31.783Z,100567.00
2022-09-03T23:25:21.858Z,100559.78
2022-09-03T23:28:12.192Z,100554.97
2022-09-03T23:31:03.948Z,100552.94
2022-09-03T23:33:50.201Z,100556.44
2022-09-03T23:37:16.004Z,100562.84
2022-09-03T23:40:21.159Z,100547.88
2022-09-03T23:43:31.133Z,100555.16
2022-09-03T23:46:20.096Z,100555.41
2022-09-03T23:49:35.575Z,100560.47
2022-09-03T23:52:41.700Z,100556.44
2022-09-03T23:55:38.605Z,100578.03
2022-09-03T23:58:36.745Z,100583.09
